sensor_id;sensor_type;location;lat;lon;timestamp;temperature;humidity
15257;DHT22;7731;50.720;6.912;2024-01-30T00:00:22;8.20;99.90
15257;DHT22;7731;50.720;6.912;2024-01-30T00:02:52;8.20;99.90
15257;DHT22;7731;50.720;6.912;2024-01-30T00:05:25;8.10;99.90
15257;DHT22;7731;50.720;6.912;2024-01-30T00:07:56;8.10;99.90
15257;DHT22;7731;50.720;6.912;2024-01-30T00:10:26;8.10;99.90
15257;DHT22;7731;50.720;6.912;2024-01-30T00:12:56;8.10;99.90
15257;DHT22;7731;50.720;6.912;2024-01-30T00:15:30;8.20;99.90
15257;DHT22;7731;50.720;6.912;2024-01-30T00:18:03;8.30;99.90
15257;DHT22;7731;50.720;6.912;2024-01-30T00:20:37;8.30;99.90
15257;DHT22;7731;50.720;6.912;2024-01-30T00:23:07;8.20;99.90
15257;DHT22;7731;50.720;6.912;2024-01-30T00:25:38;8.20;99.90
15257;DHT22;7731;50.720;6.912;2024-01-30T00:28:11;8.20;99.90
15257;DHT22;7731;50.720;6.912;2024-01-30T00:30:51;8.30;99.90
15257;DHT22;7731;50.720;6.912;2024-01-30T00:33:21;8.20;99.90
15257;DHT22;7731;50.720;6.912;2024-01-30T00:35:54;8.20;99.90
15257;DHT22;7731;50.720;6.912;2024-01-30T00:38:24;8.20;99.90
15257;DHT22;7731;50.720;6.912;2024-01-30T00:40:55;8.30;99.90
15257;DHT22;7731;50.720;6.912;2024-01-30T00:43:31;8.20;99.90
15257;DHT22;7731;50.720;6.912;2024-01-30T00:46:02;8.30;99.90
15257;DHT22;7731;50.720;6.912;2024-01-30T00:48:38;8.20;99.90
15257;DHT22;7731;50.720;6.912;2024-01-30T00:51:11;8.10;99.90
15257;DHT22;7731;50.720;6.912;2024-01-30T00:53:42;8.10;99.90
15257;DHT22;7731;50.720;6.912;2024-01-30T00:56:12;8.00;99.90
15257;DHT22;7731;50.720;6.912;2024-01-30T00:58:45;8.00;99.90
15257;DHT22;7731;50.720;6.912;2024-01-30T01:01:15;8.00;99.90
15257;DHT22;7731;50.720;6.912;2024-01-30T01:03:48;8.00;99.90
15257;DHT22;7731;50.720;6.912;2024-01-30T01:06:21;8.00;99.90
15257;DHT22;7731;50.720;6.912;2024-01-30T01:08:52;8.00;99.90
15257;DHT22;7731;50.720;6.912;2024-01-30T01:11:31;8.00;99.90
15257;DHT22;7731;50.720;6.912;2024-01-30T01:14:01;8.10;99.90
15257;DHT22;7731;50.720;6.912;2024-01-30T01:16:32;8.20;99.90
15257;DHT22;7731;50.720;6.912;2024-01-30T01:19:04;8.30;99.90
15257;DHT22;7731;50.720;6.912;2024-01-30T01:21:37;8.30;99.90
15257;DHT22;7731;50.720;6.912;2024-01-30T01:24:10;8.30;99.90
15257;DHT22;7731;50.720;6.912;2024-01-30T01:26:41;8.20;99.90
15257;DHT22;7731;50.720;6.912;2024-01-30T01:29:14;8.20;99.90
15257;DHT22;7731;50.720;6.912;2024-01-30T01:31:44;8.30;99.90
15257;DHT22;7731;50.720;6.912;2024-01-30T01:34:15;8.30;99.90
15257;DHT22;7731;50.720;6.912;2024-01-30T01:36:48;8.30;99.90
15257;DHT22;7731;50.720;6.912;2024-01-30T01:39:22;8.40;99.90
15257;DHT22;7731;50.720;6.912;2024-01-30T01:41:53;8.50;99.90
15257;DHT22;7731;50.720;6.912;2024-01-30T01:44:23;8.50;99.90
15257;DHT22;7731;50.720;6.912;2024-01-30T01:46:54;8.50;99.90
15257;DHT22;7731;50.720;6.912;2024-01-30T01:49:28;8.40;99.90
15257;DHT22;7731;50.720;6.912;2024-01-30T01:52:14;8.40;99.90
15257;DHT22;7731;50.720;6.912;2024-01-30T01:54:47;8.40;99.90
15257;DHT22;7731;50.720;6.912;2024-01-30T01:57:21;8.40;99.90
15257;DHT22;7731;50.720;6.912;2024-01-30T01:59:51;8.50;99.90
15257;DHT22;7731;50.720;6.912;2024-01-30T02:02:23;8.50;99.90
15257;DHT22;7731;50.720;6.912;2024-01-30T02:07:46;8.70;99.90
15257;DHT22;7731;50.720;6.912;2024-01-30T02:10:20;8.70;99.90
15257;DHT22;7731;50.720;6.912;2024-01-30T02:12:53;8.70;99.90
15257;DHT22;7731;50.720;6.912;2024-01-30T02:15:23;8.70;99.90
15257;DHT22;7731;50.720;6.912;2024-01-30T02:17:54;8.70;99.90
15257;DHT22;7731;50.720;6.912;2024-01-30T02:20:25;8.70;99.90
15257;DHT22;7731;50.720;6.912;2024-01-30T02:23:02;8.70;99.90
15257;DHT22;7731;50.720;6.912;2024-01-30T02:25:39;8.80;99.90
15257;DHT22;7731;50.720;6.912;2024-01-30T02:28:11;8.80;99.90
15257;DHT22;7731;50.720;6.912;2024-01-30T02:30:43;8.80;99.90
15257;DHT22;7731;50.720;6.912;2024-01-30T02:33:21;8.70;99.90
15257;DHT22;7731;50.720;6.912;2024-01-30T02:35:52;8.70;99.90
15257;DHT22;7731;50.720;6.912;2024-01-30T02:38:27;8.80;99.90
15257;DHT22;7731;50.720;6.912;2024-01-30T02:40:58;8.70;99.90
15257;DHT22;7731;50.720;6.912;2024-01-30T02:43:28;8.70;99.90
15257;DHT22;7731;50.720;6.912;2024-01-30T02:45:59;8.80;99.90
15257;DHT22;7731;50.720;6.912;2024-01-30T02:48:29;8.70;99.90
15257;DHT22;7731;50.720;6.912;2024-01-30T02:50:59;8.70;99.90
15257;DHT22;7731;50.720;6.912;2024-01-30T02:53:32;8.70;99.90
15257;DHT22;7731;50.720;6.912;2024-01-30T02:56:10;8.80;99.90
15257;DHT22;7731;50.720;6.912;2024-01-30T02:58:43;8.80;99.90
15257;DHT22;7731;50.720;6.912;2024-01-30T03:01:22;8.90;99.90
15257;DHT22;7731;50.720;6.912;2024-01-30T03:03:54;8.90;99.90
15257;DHT22;7731;50.720;6.912;2024-01-30T03:06:27;8.90;99.90
15257;DHT22;7731;50.720;6.912;2024-01-30T03:09:02;8.90;99.90
15257;DHT22;7731;50.720;6.912;2024-01-30T03:11:34;9.00;99.90
15257;DHT22;7731;50.720;6.912;2024-01-30T03:14:04;9.00;99.90
15257;DHT22;7731;50.720;6.912;2024-01-30T03:16:35;9.00;99.90
15257;DHT22;7731;50.720;6.912;2024-01-30T03:19:06;9.00;99.90
15257;DHT22;7731;50.720;6.912;2024-01-30T03:21:40;8.90;99.90
15257;DHT22;7731;50.720;6.912;2024-01-30T03:24:15;8.80;99.90
15257;DHT22;7731;50.720;6.912;2024-01-30T03:26:45;8.60;99.90
15257;DHT22;7731;50.720;6.912;2024-01-30T03:29:18;8.60;99.90
15257;DHT22;7731;50.720;6.912;2024-01-30T03:31:49;8.50;99.90
15257;DHT22;7731;50.720;6.912;2024-01-30T03:34:19;8.50;99.90
15257;DHT22;7731;50.720;6.912;2024-01-30T03:36:52;8.50;99.90
15257;DHT22;7731;50.720;6.912;2024-01-30T03:39:28;8.50;99.90
15257;DHT22;7731;50.720;6.912;2024-01-30T03:42:01;8.50;99.90
15257;DHT22;7731;50.720;6.912;2024-01-30T03:44:32;8.40;99.90
15257;DHT22;7731;50.720;6.912;2024-01-30T03:47:02;8.40;99.90
15257;DHT22;7731;50.720;6.912;2024-01-30T03:49:33;8.40;99.90
15257;DHT22;7731;50.720;6.912;2024-01-30T03:52:03;8.40;99.90
15257;DHT22;7731;50.720;6.912;2024-01-30T03:54:36;8.50;99.90
15257;DHT22;7731;50.720;6.912;2024-01-30T03:57:07;8.50;99.90
15257;DHT22;7731;50.720;6.912;2024-01-30T03:59:46;8.40;99.90
15257;DHT22;7731;50.720;6.912;2024-01-30T04:02:16;8.30;99.90
15257;DHT22;7731;50.720;6.912;2024-01-30T04:04:52;8.30;99.90
15257;DHT22;7731;50.720;6.912;2024-01-30T04:07:25;8.40;99.90
15257;DHT22;7731;50.720;6.912;2024-01-30T04:10:02;8.40;99.90
15257;DHT22;7731;50.720;6.912;2024-01-30T04:12:34;8.40;99.90
15257;DHT22;7731;50.720;6.912;2024-01-30T04:15:05;8.40;99.90
15257;DHT22;7731;50.720;6.912;2024-01-30T04:17:35;8.30;99.90
15257;DHT22;7731;50.720;6.912;2024-01-30T04:20:07;8.30;99.90
15257;DHT22;7731;50.720;6.912;2024-01-30T04:22:45;8.30;99.90
15257;DHT22;7731;50.720;6.912;2024-01-30T04:25:28;8.30;99.90
15257;DHT22;7731;50.720;6.912;2024-01-30T04:27:58;8.30;99.90
15257;DHT22;7731;50.720;6.912;2024-01-30T04:30:29;8.20;99.90
15257;DHT22;7731;50.720;6.912;2024-01-30T04:32:59;8.30;99.90
15257;DHT22;7731;50.720;6.912;2024-01-30T04:35:32;8.30;99.90
15257;DHT22;7731;50.720;6.912;2024-01-30T04:38:11;8.30;99.90
15257;DHT22;7731;50.720;6.912;2024-01-30T04:40:44;8.20;99.90
15257;DHT22;7731;50.720;6.912;2024-01-30T04:43:17;8.10;99.90
15257;DHT22;7731;50.720;6.912;2024-01-30T04:45:51;8.00;99.90
15257;DHT22;7731;50.720;6.912;2024-01-30T04:48:21;7.90;99.90
15257;DHT22;7731;50.720;6.912;2024-01-30T04:50:59;7.80;99.90
15257;DHT22;7731;50.720;6.912;2024-01-30T04:53:30;7.70;99.90
15257;DHT22;7731;50.720;6.912;2024-01-30T04:56:07;7.70;99.90
15257;DHT22;7731;50.720;6.912;2024-01-30T04:58:40;7.60;99.90
15257;DHT22;7731;50.720;6.912;2024-01-30T05:01:15;7.60;99.90
15257;DHT22;7731;50.720;6.912;2024-01-30T05:03:55;7.60;99.90
15257;DHT22;7731;50.720;6.912;2024-01-30T05:06:25;7.50;99.90
15257;DHT22;7731;50.720;6.912;2024-01-30T05:08:56;7.50;99.90
15257;DHT22;7731;50.720;6.912;2024-01-30T05:11:37;7.50;99.90
15257;DHT22;7731;50.720;6.912;2024-01-30T05:14:07;7.40;99.90
15257;DHT22;7731;50.720;6.912;2024-01-30T05:16:39;7.40;99.90
15257;DHT22;7731;50.720;6.912;2024-01-30T05:19:16;7.30;99.90
15257;DHT22;7731;50.720;6.912;2024-01-30T05:21:47;7.50;99.90
15257;DHT22;7731;50.720;6.912;2024-01-30T05:24:23;7.60;99.90
15257;DHT22;7731;50.720;6.912;2024-01-30T05:26:59;7.60;99.90
15257;DHT22;7731;50.720;6.912;2024-01-30T05:29:31;7.50;99.90
15257;DHT22;7731;50.720;6.912;2024-01-30T05:32:02;7.50;99.90
15257;DHT22;7731;50.720;6.912;2024-01-30T05:34:33;7.50;99.90
15257;DHT22;7731;50.720;6.912;2024-01-30T05:37:04;7.50;99.90
15257;DHT22;7731;50.720;6.912;2024-01-30T05:39:34;7.50;99.90
15257;DHT22;7731;50.720;6.912;2024-01-30T05:42:07;7.60;99.90
15257;DHT22;7731;50.720;6.912;2024-01-30T05:44:40;7.60;99.90
15257;DHT22;7731;50.720;6.912;2024-01-30T05:47:13;7.70;99.90
15257;DHT22;7731;50.720;6.912;2024-01-30T05:49:46;7.80;99.90
15257;DHT22;7731;50.720;6.912;2024-01-30T05:52:19;7.80;99.90
15257;DHT22;7731;50.720;6.912;2024-01-30T05:54:50;7.80;99.90
15257;DHT22;7731;50.720;6.912;2024-01-30T05:57:25;7.80;99.90
15257;DHT22;7731;50.720;6.912;2024-01-30T05:59:55;7.70;99.90
15257;DHT22;7731;50.720;6.912;2024-01-30T06:02:25;7.70;99.90
15257;DHT22;7731;50.720;6.912;2024-01-30T06:04:56;7.80;99.90
15257;DHT22;7731;50.720;6.912;2024-01-30T06:07:26;7.70;99.90
15257;DHT22;7731;50.720;6.912;2024-01-30T06:10:02;7.70;99.90
15257;DHT22;7731;50.720;6.912;2024-01-30T06:12:37;7.60;99.90
15257;DHT22;7731;50.720;6.912;2024-01-30T06:15:08;7.60;99.90
15257;DHT22;7731;50.720;6.912;2024-01-30T06:17:40;7.60;99.90
15257;DHT22;7731;50.720;6.912;2024-01-30T06:20:10;7.60;99.90
15257;DHT22;7731;50.720;6.912;2024-01-30T06:22:49;7.60;99.90
15257;DHT22;7731;50.720;6.912;2024-01-30T06:25:20;7.50;99.90
15257;DHT22;7731;50.720;6.912;2024-01-30T06:27:55;7.60;99.90
15257;DHT22;7731;50.720;6.912;2024-01-30T06:30:28;7.50;99.90
15257;DHT22;7731;50.720;6.912;2024-01-30T06:32:58;7.60;99.90
15257;DHT22;7731;50.720;6.912;2024-01-30T06:35:28;7.60;99.90
15257;DHT22;7731;50.720;6.912;2024-01-30T06:37:59;7.60;99.90
15257;DHT22;7731;50.720;6.912;2024-01-30T06:40:29;7.60;99.90
15257;DHT22;7731;50.720;6.912;2024-01-30T06:43:02;7.60;99.90
15257;DHT22;7731;50.720;6.912;2024-01-30T06:45:33;7.60;99.90
15257;DHT22;7731;50.720;6.912;2024-01-30T06:48:10;7.60;99.90
15257;DHT22;7731;50.720;6.912;2024-01-30T06:50:40;7.60;99.90
15257;DHT22;7731;50.720;6.912;2024-01-30T06:53:11;7.70;99.90
15257;DHT22;7731;50.720;6.912;2024-01-30T06:55:41;7.80;99.90
15257;DHT22;7731;50.720;6.912;2024-01-30T06:58:14;7.90;99.90
15257;DHT22;7731;50.720;6.912;2024-01-30T07:00:47;7.90;99.90
15257;DHT22;7731;50.720;6.912;2024-01-30T07:03:18;7.80;99.90
15257;DHT22;7731;50.720;6.912;2024-01-30T07:05:48;7.80;99.90
15257;DHT22;7731;50.720;6.912;2024-01-30T07:08:19;7.80;99.90
15257;DHT22;7731;50.720;6.912;2024-01-30T07:10:49;7.90;99.90
15257;DHT22;7731;50.720;6.912;2024-01-30T07:13:32;7.90;99.90
15257;DHT22;7731;50.720;6.912;2024-01-30T07:16:04;8.00;99.90
15257;DHT22;7731;50.720;6.912;2024-01-30T07:18:35;8.00;99.90
15257;DHT22;7731;50.720;6.912;2024-01-30T07:21:12;8.00;99.90
15257;DHT22;7731;50.720;6.912;2024-01-30T07:23:43;8.10;99.90
15257;DHT22;7731;50.720;6.912;2024-01-30T07:26:16;8.10;99.90
15257;DHT22;7731;50.720;6.912;2024-01-30T07:28:48;8.20;99.90
15257;DHT22;7731;50.720;6.912;2024-01-30T07:31:24;8.20;99.90
15257;DHT22;7731;50.720;6.912;2024-01-30T07:34:00;8.30;99.90
15257;DHT22;7731;50.720;6.912;2024-01-30T07:36:30;8.30;99.90
15257;DHT22;7731;50.720;6.912;2024-01-30T07:39:00;8.30;99.90
15257;DHT22;7731;50.720;6.912;2024-01-30T07:41:31;8.40;99.90
15257;DHT22;7731;50.720;6.912;2024-01-30T07:44:07;8.40;99.90
15257;DHT22;7731;50.720;6.912;2024-01-30T07:46:37;8.50;99.90
15257;DHT22;7731;50.720;6.912;2024-01-30T07:49:07;8.50;99.90
15257;DHT22;7731;50.720;6.912;2024-01-30T07:51:38;8.60;99.90
15257;DHT22;7731;50.720;6.912;2024-01-30T07:54:11;8.70;99.90
15257;DHT22;7731;50.720;6.912;2024-01-30T07:56:41;8.70;99.90
15257;DHT22;7731;50.720;6.912;2024-01-30T07:59:14;8.70;99.90
15257;DHT22;7731;50.720;6.912;2024-01-30T08:02:01;8.70;99.90
15257;DHT22;7731;50.720;6.912;2024-01-30T08:04:32;8.80;99.90
15257;DHT22;7731;50.720;6.912;2024-01-30T08:07:03;8.80;99.90
15257;DHT22;7731;50.720;6.912;2024-01-30T08:09:33;8.80;99.90
15257;DHT22;7731;50.720;6.912;2024-01-30T08:12:04;8.70;99.90
15257;DHT22;7731;50.720;6.912;2024-01-30T08:14:37;8.80;99.90
15257;DHT22;7731;50.720;6.912;2024-01-30T08:17:11;8.80;99.90
15257;DHT22;7731;50.720;6.912;2024-01-30T08:19:44;8.90;99.90
15257;DHT22;7731;50.720;6.912;2024-01-30T08:22:14;9.00;99.90
15257;DHT22;7731;50.720;6.912;2024-01-30T08:24:45;9.00;99.90
15257;DHT22;7731;50.720;6.912;2024-01-30T08:27:15;9.10;99.90
15257;DHT22;7731;50.720;6.912;2024-01-30T08:29:48;9.20;99.90
15257;DHT22;7731;50.720;6.912;2024-01-30T08:32:19;9.20;99.90
15257;DHT22;7731;50.720;6.912;2024-01-30T08:34:49;9.30;99.90
15257;DHT22;7731;50.720;6.912;2024-01-30T08:37:22;9.30;99.90
15257;DHT22;7731;50.720;6.912;2024-01-30T08:39:55;9.30;99.90
15257;DHT22;7731;50.720;6.912;2024-01-30T08:42:26;9.30;99.90
15257;DHT22;7731;50.720;6.912;2024-01-30T08:44:59;9.30;99.90
15257;DHT22;7731;50.720;6.912;2024-01-30T08:47:32;9.40;99.90
15257;DHT22;7731;50.720;6.912;2024-01-30T08:50:03;9.60;99.90
15257;DHT22;7731;50.720;6.912;2024-01-30T08:52:37;9.90;1.00
15257;DHT22;7731;50.720;6.912;2024-01-30T08:55:08;10.20;1.00
15257;DHT22;7731;50.720;6.912;2024-01-30T08:57:50;10.70;1.00
15257;DHT22;7731;50.720;6.912;2024-01-30T09:00:24;11.10;99.90
15257;DHT22;7731;50.720;6.912;2024-01-30T09:02:57;11.60;99.90
15257;DHT22;7731;50.720;6.912;2024-01-30T09:05:27;11.90;1.00
15257;DHT22;7731;50.720;6.912;2024-01-30T09:07:58;11.90;1.00
15257;DHT22;7731;50.720;6.912;2024-01-30T09:10:28;11.90;1.00
15257;DHT22;7731;50.720;6.912;2024-01-30T09:12:59;11.60;1.00
15257;DHT22;7731;50.720;6.912;2024-01-30T09:15:32;11.60;1.00
15257;DHT22;7731;50.720;6.912;2024-01-30T09:18:03;11.60;1.00
15257;DHT22;7731;50.720;6.912;2024-01-30T09:20:35;11.70;1.00
15257;DHT22;7731;50.720;6.912;2024-01-30T09:23:06;12.30;1.00
15257;DHT22;7731;50.720;6.912;2024-01-30T09:25:36;13.30;86.60
15257;DHT22;7731;50.720;6.912;2024-01-30T09:28:09;14.40;1.00
15257;DHT22;7731;50.720;6.912;2024-01-30T09:30:42;15.50;99.90
15257;DHT22;7731;50.720;6.912;2024-01-30T09:33:16;16.10;99.90
15257;DHT22;7731;50.720;6.912;2024-01-30T09:35:49;16.70;72.00
15257;DHT22;7731;50.720;6.912;2024-01-30T09:38:22;17.10;31.00
15257;DHT22;7731;50.720;6.912;2024-01-30T09:40:54;17.60;1.00
15257;DHT22;7731;50.720;6.912;2024-01-30T09:43:33;17.40;1.00
15257;DHT22;7731;50.720;6.912;2024-01-30T09:46:11;17.00;1.00
15257;DHT22;7731;50.720;6.912;2024-01-30T09:48:46;16.20;38.90
15257;DHT22;7731;50.720;6.912;2024-01-30T09:51:18;15.80;80.40
15257;DHT22;7731;50.720;6.912;2024-01-30T09:53:53;15.30;99.90
15257;DHT22;7731;50.720;6.912;2024-01-30T09:56:25;15.00;99.90
15257;DHT22;7731;50.720;6.912;2024-01-30T09:58:58;14.40;1.00
15257;DHT22;7731;50.720;6.912;2024-01-30T10:01:37;14.20;1.00
15257;DHT22;7731;50.720;6.912;2024-01-30T10:04:08;13.90;1.00
15257;DHT22;7731;50.720;6.912;2024-01-30T10:06:40;13.50;1.00
15257;DHT22;7731;50.720;6.912;2024-01-30T10:09:11;13.30;1.00
15257;DHT22;7731;50.720;6.912;2024-01-30T10:11:42;13.10;1.00
15257;DHT22;7731;50.720;6.912;2024-01-30T10:14:16;13.00;99.90
15257;DHT22;7731;50.720;6.912;2024-01-30T10:16:51;12.90;1.00
15257;DHT22;7731;50.720;6.912;2024-01-30T10:19:21;12.70;40.50
15257;DHT22;7731;50.720;6.912;2024-01-30T10:21:52;12.70;99.90
15257;DHT22;7731;50.720;6.912;2024-01-30T10:24:25;12.70;1.00
15257;DHT22;7731;50.720;6.912;2024-01-30T10:26:56;12.60;1.00
15257;DHT22;7731;50.720;6.912;2024-01-30T10:29:27;12.50;1.00
15257;DHT22;7731;50.720;6.912;2024-01-30T10:32:05;12.50;99.90
15257;DHT22;7731;50.720;6.912;2024-01-30T10:34:36;12.70;1.00
15257;DHT22;7731;50.720;6.912;2024-01-30T10:37:09;12.60;1.00
15257;DHT22;7731;50.720;6.912;2024-01-30T10:39:46;12.60;1.00
15257;DHT22;7731;50.720;6.912;2024-01-30T10:42:21;12.60;1.00
15257;DHT22;7731;50.720;6.912;2024-01-30T10:45:02;12.60;1.00
15257;DHT22;7731;50.720;6.912;2024-01-30T10:47:40;12.50;1.00
15257;DHT22;7731;50.720;6.912;2024-01-30T10:50:13;12.60;1.00
15257;DHT22;7731;50.720;6.912;2024-01-30T10:52:50;12.40;1.00
15257;DHT22;7731;50.720;6.912;2024-01-30T10:55:25;12.40;1.00
15257;DHT22;7731;50.720;6.912;2024-01-30T10:57:58;12.30;1.00
15257;DHT22;7731;50.720;6.912;2024-01-30T11:00:29;12.20;1.00
15257;DHT22;7731;50.720;6.912;2024-01-30T11:03:12;12.30;99.90
15257;DHT22;7731;50.720;6.912;2024-01-30T11:05:49;12.40;1.00
15257;DHT22;7731;50.720;6.912;2024-01-30T11:08:24;12.40;99.90
15257;DHT22;7731;50.720;6.912;2024-01-30T11:10:56;12.50;99.90
15257;DHT22;7731;50.720;6.912;2024-01-30T11:13:27;12.50;99.90
15257;DHT22;7731;50.720;6.912;2024-01-30T11:16:02;12.50;99.90
15257;DHT22;7731;50.720;6.912;2024-01-30T11:18:36;12.50;1.00
15257;DHT22;7731;50.720;6.912;2024-01-30T11:21:06;12.60;1.00
15257;DHT22;7731;50.720;6.912;2024-01-30T11:23:38;12.50;1.00
15257;DHT22;7731;50.720;6.912;2024-01-30T11:26:11;12.60;99.90
15257;DHT22;7731;50.720;6.912;2024-01-30T11:28:41;12.70;1.00
15257;DHT22;7731;50.720;6.912;2024-01-30T11:31:29;12.80;1.00
15257;DHT22;7731;50.720;6.912;2024-01-30T11:34:18;12.80;99.90
15257;DHT22;7731;50.720;6.912;2024-01-30T11:36:55;12.90;1.00
15257;DHT22;7731;50.720;6.912;2024-01-30T11:39:29;13.00;99.90
15257;DHT22;7731;50.720;6.912;2024-01-30T11:42:00;13.00;1.00
15257;DHT22;7731;50.720;6.912;2024-01-30T11:44:31;13.00;1.00
15257;DHT22;7731;50.720;6.912;2024-01-30T11:47:03;13.00;1.00
15257;DHT22;7731;50.720;6.912;2024-01-30T11:49:36;12.80;99.90
15257;DHT22;7731;50.720;6.912;2024-01-30T11:52:06;12.80;1.00
15257;DHT22;7731;50.720;6.912;2024-01-30T11:54:43;12.80;24.40
15257;DHT22;7731;50.720;6.912;2024-01-30T11:57:13;12.90;1.00
15257;DHT22;7731;50.720;6.912;2024-01-30T11:59:44;12.90;1.00
15257;DHT22;7731;50.720;6.912;2024-01-30T12:02:17;13.00;99.90
15257;DHT22;7731;50.720;6.912;2024-01-30T12:04:50;13.00;99.90
15257;DHT22;7731;50.720;6.912;2024-01-30T12:07:20;13.00;99.90
15257;DHT22;7731;50.720;6.912;2024-01-30T12:09:56;13.10;99.90
15257;DHT22;7731;50.720;6.912;2024-01-30T12:12:28;13.20;1.00
15257;DHT22;7731;50.720;6.912;2024-01-30T12:15:08;13.20;1.00
15257;DHT22;7731;50.720;6.912;2024-01-30T12:17:40;13.20;1.00
15257;DHT22;7731;50.720;6.912;2024-01-30T12:20:14;13.20;1.00
15257;DHT22;7731;50.720;6.912;2024-01-30T12:22:49;13.20;1.00
15257;DHT22;7731;50.720;6.912;2024-01-30T12:25:22;13.40;99.90
15257;DHT22;7731;50.720;6.912;2024-01-30T12:27:52;13.30;99.90
15257;DHT22;7731;50.720;6.912;2024-01-30T12:30:23;13.40;99.90
15257;DHT22;7731;50.720;6.912;2024-01-30T12:32:56;13.30;99.90
15257;DHT22;7731;50.720;6.912;2024-01-30T12:35:29;13.30;99.90
15257;DHT22;7731;50.720;6.912;2024-01-30T12:38:06;13.20;99.90
15257;DHT22;7731;50.720;6.912;2024-01-30T12:40:36;13.10;1.00
15257;DHT22;7731;50.720;6.912;2024-01-30T12:43:11;13.10;1.00
15257;DHT22;7731;50.720;6.912;2024-01-30T12:46:00;13.00;86.70
15257;DHT22;7731;50.720;6.912;2024-01-30T12:48:31;13.00;1.00
15257;DHT22;7731;50.720;6.912;2024-01-30T12:51:07;13.00;99.90
15257;DHT22;7731;50.720;6.912;2024-01-30T12:53:37;13.00;99.90
15257;DHT22;7731;50.720;6.912;2024-01-30T12:56:08;13.10;99.90
15257;DHT22;7731;50.720;6.912;2024-01-30T12:58:38;13.10;1.00
15257;DHT22;7731;50.720;6.912;2024-01-30T13:01:29;13.10;1.00
15257;DHT22;7731;50.720;6.912;2024-01-30T13:04:15;13.10;1.00
15257;DHT22;7731;50.720;6.912;2024-01-30T13:06:48;13.20;1.00
15257;DHT22;7731;50.720;6.912;2024-01-30T13:09:18;13.20;1.00
15257;DHT22;7731;50.720;6.912;2024-01-30T13:11:49;13.30;1.00
15257;DHT22;7731;50.720;6.912;2024-01-30T13:14:22;13.40;1.00
15257;DHT22;7731;50.720;6.912;2024-01-30T13:16:53;13.50;99.90
15257;DHT22;7731;50.720;6.912;2024-01-30T13:19:26;13.60;1.00
15257;DHT22;7731;50.720;6.912;2024-01-30T13:21:59;13.70;77.10
15257;DHT22;7731;50.720;6.912;2024-01-30T13:24:32;13.70;1.00
15257;DHT22;7731;50.720;6.912;2024-01-30T13:27:03;13.70;1.00
15257;DHT22;7731;50.720;6.912;2024-01-30T13:29:34;13.50;29.10
15257;DHT22;7731;50.720;6.912;2024-01-30T13:32:04;13.40;99.90
15257;DHT22;7731;50.720;6.912;2024-01-30T13:34:35;13.40;99.90
15257;DHT22;7731;50.720;6.912;2024-01-30T13:37:10;13.60;1.00
15257;DHT22;7731;50.720;6.912;2024-01-30T13:39:40;13.60;99.90
15257;DHT22;7731;50.720;6.912;2024-01-30T13:42:11;13.50;99.90
15257;DHT22;7731;50.720;6.912;2024-01-30T13:44:47;13.50;1.00
15257;DHT22;7731;50.720;6.912;2024-01-30T13:47:23;13.50;1.00
15257;DHT22;7731;50.720;6.912;2024-01-30T13:49:58;13.50;99.90
15257;DHT22;7731;50.720;6.912;2024-01-30T13:52:33;13.40;99.90
15257;DHT22;7731;50.720;6.912;2024-01-30T13:55:14;13.40;1.00
15257;DHT22;7731;50.720;6.912;2024-01-30T13:57:47;13.40;99.90
15257;DHT22;7731;50.720;6.912;2024-01-30T14:00:22;13.40;99.90
15257;DHT22;7731;50.720;6.912;2024-01-30T14:02:53;13.30;99.90
15257;DHT22;7731;50.720;6.912;2024-01-30T14:05:25;13.30;1.00
15257;DHT22;7731;50.720;6.912;2024-01-30T14:08:06;13.20;99.90
15257;DHT22;7731;50.720;6.912;2024-01-30T14:10:37;13.20;1.00
15257;DHT22;7731;50.720;6.912;2024-01-30T14:13:13;13.30;25.50
15257;DHT22;7731;50.720;6.912;2024-01-30T14:15:47;13.30;1.00
15257;DHT22;7731;50.720;6.912;2024-01-30T14:18:17;13.30;1.00
15257;DHT22;7731;50.720;6.912;2024-01-30T14:20:48;13.30;1.00
15257;DHT22;7731;50.720;6.912;2024-01-30T14:23:24;13.30;99.90
15257;DHT22;7731;50.720;6.912;2024-01-30T14:26:01;13.20;1.00
15257;DHT22;7731;50.720;6.912;2024-01-30T14:28:33;13.10;5.80
15257;DHT22;7731;50.720;6.912;2024-01-30T14:31:04;13.00;1.00
15257;DHT22;7731;50.720;6.912;2024-01-30T14:33:34;13.00;99.90
15257;DHT22;7731;50.720;6.912;2024-01-30T14:36:16;12.90;1.00
15257;DHT22;7731;50.720;6.912;2024-01-30T14:38:50;12.90;1.00
15257;DHT22;7731;50.720;6.912;2024-01-30T14:41:23;12.90;1.00
15257;DHT22;7731;50.720;6.912;2024-01-30T14:43:53;12.80;99.90
15257;DHT22;7731;50.720;6.912;2024-01-30T14:46:26;12.90;99.90
15257;DHT22;7731;50.720;6.912;2024-01-30T14:48:59;12.80;1.00
15257;DHT22;7731;50.720;6.912;2024-01-30T14:51:34;12.70;1.00
15257;DHT22;7731;50.720;6.912;2024-01-30T14:54:09;12.70;29.80
15257;DHT22;7731;50.720;6.912;2024-01-30T14:56:39;12.70;99.90
15257;DHT22;7731;50.720;6.912;2024-01-30T14:59:10;12.70;99.90
15257;DHT22;7731;50.720;6.912;2024-01-30T15:01:40;12.60;99.90
15257;DHT22;7731;50.720;6.912;2024-01-30T15:04:12;12.60;99.90
15257;DHT22;7731;50.720;6.912;2024-01-30T15:06:43;12.50;1.00
15257;DHT22;7731;50.720;6.912;2024-01-30T15:09:18;12.40;1.00
15257;DHT22;7731;50.720;6.912;2024-01-30T15:11:52;12.30;1.00
15257;DHT22;7731;50.720;6.912;2024-01-30T15:14:23;12.30;1.00
15257;DHT22;7731;50.720;6.912;2024-01-30T15:16:54;12.40;1.00
15257;DHT22;7731;50.720;6.912;2024-01-30T15:19:24;12.30;1.00
15257;DHT22;7731;50.720;6.912;2024-01-30T15:21:55;12.20;1.00
15257;DHT22;7731;50.720;6.912;2024-01-30T15:24:28;12.20;1.00
15257;DHT22;7731;50.720;6.912;2024-01-30T15:26:59;12.10;1.00
15257;DHT22;7731;50.720;6.912;2024-01-30T15:29:29;12.00;25.00
15257;DHT22;7731;50.720;6.912;2024-01-30T15:32:03;12.00;38.70
15257;DHT22;7731;50.720;6.912;2024-01-30T15:34:39;12.00;85.50
15257;DHT22;7731;50.720;6.912;2024-01-30T15:37:12;12.00;99.90
15257;DHT22;7731;50.720;6.912;2024-01-30T15:39:48;12.00;95.60
15257;DHT22;7731;50.720;6.912;2024-01-30T15:42:18;12.00;97.20
15257;DHT22;7731;50.720;6.912;2024-01-30T15:44:51;12.00;78.80
15257;DHT22;7731;50.720;6.912;2024-01-30T15:47:21;12.00;82.20
15257;DHT22;7731;50.720;6.912;2024-01-30T15:49:51;12.00;98.10
15257;DHT22;7731;50.720;6.912;2024-01-30T15:52:22;12.00;99.90
15257;DHT22;7731;50.720;6.912;2024-01-30T15:54:58;12.00;98.50
15257;DHT22;7731;50.720;6.912;2024-01-30T15:57:32;12.00;99.90
15257;DHT22;7731;50.720;6.912;2024-01-30T16:00:03;12.00;90.70
15257;DHT22;7731;50.720;6.912;2024-01-30T16:02:34;11.90;99.90
15257;DHT22;7731;50.720;6.912;2024-01-30T16:05:08;11.90;99.90
15257;DHT22;7731;50.720;6.912;2024-01-30T16:07:38;11.90;99.90
15257;DHT22;7731;50.720;6.912;2024-01-30T16:10:11;11.90;99.90
15257;DHT22;7731;50.720;6.912;2024-01-30T16:12:44;11.90;96.30
15257;DHT22;7731;50.720;6.912;2024-01-30T16:15:22;11.80;99.90
15257;DHT22;7731;50.720;6.912;2024-01-30T16:17:52;11.80;99.90
15257;DHT22;7731;50.720;6.912;2024-01-30T16:20:26;11.80;99.90
15257;DHT22;7731;50.720;6.912;2024-01-30T16:23:04;11.70;99.90
15257;DHT22;7731;50.720;6.912;2024-01-30T16:25:37;11.70;99.90
15257;DHT22;7731;50.720;6.912;2024-01-30T16:28:07;11.70;99.90
15257;DHT22;7731;50.720;6.912;2024-01-30T16:30:37;11.60;99.90
15257;DHT22;7731;50.720;6.912;2024-01-30T16:33:08;11.60;99.90
15257;DHT22;7731;50.720;6.912;2024-01-30T16:36:01;11.60;99.90